Time;durP1;ratioP1;P1;durP2;ratioP2;P2;SDS_P1;SDS_P2;PMS_P1;PMS_P2;Temp;Humidity;BMP_temperature;BMP_pressure;BME280_temperature;BME280_humidity;BME280_pressure;Samples;Min_cycle;Max_cycle;Signal;HPM_P1;HPM_P2
2024/02/14 00:00:09;;;;;;;5.60;2.50;;;5.20;99.90;;;;;;4943706;28;20030;-64
2024/02/14 00:02:36;;;;;;;2.20;2.00;;;5.10;99.90;;;;;;4921812;28;20121;-63
2024/02/14 00:05:02;;;;;;;2.42;1.75;;;5.10;99.90;;;;;;4901018;28;20041;-62
2024/02/14 00:07:28;;;;;;;5.00;2.10;;;5.10;99.90;;;;;;4965425;28;20063;-63
2024/02/14 00:09:54;;;;;;;7.70;2.92;;;5.10;99.90;;;;;;4971991;28;20034;-63
2024/02/14 00:12:20;;;;;;;2.38;1.98;;;5.10;99.90;;;;;;4980176;28;20104;-64
2024/02/14 00:14:45;;;;;;;3.25;2.00;;;5.10;99.90;;;;;;4979344;28;20022;-63
2024/02/14 00:17:12;;;;;;;4.50;1.90;;;5.00;99.90;;;;;;4956166;28;20026;-65
2024/02/14 00:19:37;;;;;;;3.35;2.40;;;5.00;99.90;;;;;;4956520;28;20034;-63
2024/02/14 00:22:03;;;;;;;5.60;2.40;;;5.00;99.90;;;;;;4951117;28;20041;-63
2024/02/14 00:24:29;;;;;;;3.88;2.65;;;4.90;99.90;;;;;;4968961;28;20105;-63
2024/02/14 00:26:56;;;;;;;6.57;2.58;;;4.90;99.90;;;;;;4962057;28;20398;-67
2024/02/14 00:29:22;;;;;;;4.03;2.65;;;4.90;99.90;;;;;;4956298;28;20023;-64
2024/02/14 00:31:48;;;;;;;7.38;2.92;;;4.80;99.90;;;;;;4957926;28;20108;-63
2024/02/14 00:34:14;;;;;;;3.17;2.30;;;4.80;99.90;;;;;;4961575;28;20468;-63
2024/02/14 00:36:39;;;;;;;2.38;1.77;;;4.80;99.90;;;;;;4951815;28;20034;-65
2024/02/14 00:39:08;;;;;;;3.63;1.88;;;4.70;99.90;;;;;;4953685;28;20060;-63
2024/02/14 00:41:35;;;;;;;5.13;2.42;;;4.70;99.90;;;;;;4968791;28;20087;-63
2024/02/14 00:44:01;;;;;;;2.97;1.90;;;4.60;99.90;;;;;;4971983;28;20018;-63
2024/02/14 00:46:27;;;;;;;5.20;2.40;;;4.60;99.90;;;;;;4955615;28;20352;-64
2024/02/14 00:48:54;;;;;;;5.75;1.90;;;4.60;99.90;;;;;;4939357;28;20014;-63
2024/02/14 00:51:20;;;;;;;3.88;1.90;;;4.60;99.90;;;;;;4976453;28;20029;-63
2024/02/14 00:53:45;;;;;;;5.03;1.75;;;4.60;99.90;;;;;;4966656;28;20025;-63
2024/02/14 00:56:11;;;;;;;2.25;2.05;;;4.60;99.90;;;;;;4944572;28;20072;-65
2024/02/14 00:58:37;;;;;;;3.47;1.80;;;4.50;99.90;;;;;;4945530;28;20034;-63
2024/02/14 01:01:02;;;;;;;3.17;2.47;;;4.50;99.90;;;;;;4935174;28;21476;-63
2024/02/14 01:03:28;;;;;;;3.28;2.00;;;4.50;99.90;;;;;;4959387;28;20038;-64
2024/02/14 01:05:54;;;;;;;3.08;2.22;;;4.50;99.90;;;;;;4956565;28;20038;-64
2024/02/14 01:08:20;;;;;;;3.10;2.10;;;4.50;99.90;;;;;;4943425;28;20033;-63
2024/02/14 01:10:46;;;;;;;3.47;2.53;;;4.50;99.90;;;;;;4939746;28;20026;-63
2024/02/14 01:13:12;;;;;;;3.70;2.10;;;4.50;99.90;;;;;;4928086;28;20029;-63
2024/02/14 01:15:38;;;;;;;3.38;2.38;;;4.40;99.90;;;;;;4954253;28;20037;-66
2024/02/14 01:18:03;;;;;;;5.28;2.67;;;4.40;99.90;;;;;;4929519;28;20038;-64
2024/02/14 01:20:29;;;;;;;2.83;2.10;;;4.40;99.90;;;;;;4945697;28;20038;-64
2024/02/14 01:22:55;;;;;;;2.88;2.20;;;4.40;99.90;;;;;;4927032;28;20464;-63
2024/02/14 01:25:20;;;;;;;3.45;2.35;;;4.40;99.90;;;;;;4911327;28;20034;-64
2024/02/14 01:27:47;;;;;;;3.83;2.38;;;4.50;99.90;;;;;;4906269;28;20107;-65
2024/02/14 01:30:14;;;;;;;4.90;2.20;;;4.40;99.90;;;;;;4947819;28;21473;-64
2024/02/14 01:32:40;;;;;;;3.85;2.15;;;4.50;99.90;;;;;;4945566;28;20452;-63
2024/02/14 01:35:06;;;;;;;3.00;2.10;;;4.50;99.90;;;;;;4927461;28;20108;-63
2024/02/14 01:37:32;;;;;;;2.63;2.03;;;4.50;99.90;;;;;;4916263;28;20044;-63
2024/02/14 01:39:57;;;;;;;1.85;1.67;;;4.50;99.90;;;;;;4915993;28;21516;-63
2024/02/14 01:42:23;;;;;;;2.20;1.90;;;4.50;99.90;;;;;;4952444;28;20037;-63
2024/02/14 01:44:48;;;;;;;3.53;2.17;;;4.50;99.90;;;;;;4946529;28;20032;-63
2024/02/14 01:47:14;;;;;;;4.80;2.45;;;4.50;99.90;;;;;;4919027;28;20368;-66
2024/02/14 01:49:44;;;;;;;2.42;1.85;;;4.50;99.90;;;;;;4938981;28;20117;-64
2024/02/14 01:52:10;;;;;;;3.92;2.30;;;4.50;99.90;;;;;;4911311;28;20457;-65
2024/02/14 01:54:36;;;;;;;4.93;2.47;;;4.50;99.90;;;;;;4965575;28;20026;-65
2024/02/14 01:57:03;;;;;;;2.42;1.90;;;4.50;99.90;;;;;;4913523;28;20030;-66
2024/02/14 01:59:28;;;;;;;2.88;1.90;;;4.50;99.90;;;;;;4944537;28;20038;-65
2024/02/14 02:01:54;;;;;;;2.58;2.20;;;4.50;99.90;;;;;;4943639;28;20586;-65
2024/02/14 02:04:20;;;;;;;3.80;1.95;;;4.40;99.90;;;;;;4914324;28;20549;-65
2024/02/14 02:06:46;;;;;;;3.28;2.05;;;4.40;99.90;;;;;;4909063;28;20030;-65
2024/02/14 02:09:11;;;;;;;3.08;2.20;;;4.40;99.90;;;;;;4945696;28;20558;-65
2024/02/14 02:11:50;;;;;;;2.38;1.88;;;4.40;99.90;;;;;;4961583;28;20034;-65
2024/02/14 02:14:16;;;;;;;2.50;1.98;;;4.40;99.90;;;;;;4906718;28;20034;-66
2024/02/14 02:16:42;;;;;;;2.75;2.10;;;4.40;99.90;;;;;;4946032;28;20186;-66
2024/02/14 02:19:09;;;;;;;2.50;2.10;;;4.40;99.90;;;;;;4916820;28;20038;-65
2024/02/14 02:21:35;;;;;;;2.60;2.08;;;4.40;99.90;;;;;;4937622;28;20038;-66
2024/02/14 02:24:04;;;;;;;2.97;1.88;;;4.40;99.90;;;;;;4910558;28;20050;-65
2024/02/14 02:26:30;;;;;;;4.82;2.75;;;4.40;99.90;;;;;;4940301;28;20044;-66
2024/02/14 02:28:56;;;;;;;4.13;2.00;;;4.40;99.90;;;;;;4912255;28;20030;-67
2024/02/14 02:31:22;;;;;;;4.68;2.58;;;4.40;99.90;;;;;;4913923;28;20026;-66
2024/02/14 02:33:47;;;;;;;4.45;1.92;;;4.40;99.90;;;;;;4896490;28;20036;-65
2024/02/14 02:36:13;;;;;;;2.70;2.10;;;4.40;99.90;;;;;;4951120;28;21491;-68
2024/02/14 02:38:39;;;;;;;5.10;2.60;;;4.40;99.90;;;;;;4933533;28;20029;-66
2024/02/14 02:41:08;;;;;;;3.67;2.70;;;4.40;99.90;;;;;;4917621;28;20045;-66
2024/02/14 02:43:34;;;;;;;2.28;2.05;;;4.40;99.90;;;;;;4907951;28;20038;-65
2024/02/14 02:46:01;;;;;;;2.65;1.98;;;4.40;99.90;;;;;;4895432;28;21482;-66
2024/02/14 02:48:26;;;;;;;6.78;2.65;;;4.40;99.90;;;;;;4933998;28;20030;-66
2024/02/14 02:50:52;;;;;;;3.83;2.60;;;4.40;99.90;;;;;;4932775;28;20538;-65
2024/02/14 02:53:18;;;;;;;3.20;2.67;;;4.40;99.90;;;;;;4925813;28;20445;-66
2024/02/14 02:55:44;;;;;;;3.08;2.72;;;4.40;99.90;;;;;;4938174;28;20181;-65
2024/02/14 02:58:10;;;;;;;2.83;2.55;;;4.40;99.90;;;;;;4892290;28;20034;-66
2024/02/14 03:00:36;;;;;;;3.85;2.58;;;4.40;99.90;;;;;;4942665;28;20033;-65
2024/02/14 03:03:04;;;;;;;3.72;2.60;;;4.40;99.90;;;;;;4905699;28;20044;-65
2024/02/14 03:05:31;;;;;;;2.58;2.38;;;4.40;99.90;;;;;;4927207;28;20501;-65
2024/02/14 03:07:58;;;;;;;3.88;2.70;;;4.40;99.90;;;;;;4936657;28;20057;-66
2024/02/14 03:10:24;;;;;;;5.38;2.90;;;4.40;99.90;;;;;;4901543;28;20061;-65
2024/02/14 03:12:50;;;;;;;3.97;3.15;;;4.40;99.90;;;;;;4906177;28;20018;-65
2024/02/14 03:15:16;;;;;;;3.58;2.80;;;4.40;99.90;;;;;;4931115;28;22423;-66
2024/02/14 03:17:42;;;;;;;5.28;3.20;;;4.30;99.90;;;;;;4933383;28;20513;-65
2024/02/14 03:20:14;;;;;;;3.28;2.83;;;4.30;99.90;;;;;;4971513;28;20030;-65
2024/02/14 03:22:47;;;;;;;4.68;3.17;;;4.30;99.90;;;;;;4906335;28;20030;-64
2024/02/14 03:25:16;;;;;;;4.13;2.83;;;4.30;99.90;;;;;;4913869;28;20038;-65
2024/02/14 03:27:42;;;;;;;2.67;2.47;;;4.30;99.90;;;;;;4893473;28;20026;-66
2024/02/14 03:30:08;;;;;;;6.60;2.92;;;4.30;99.90;;;;;;4946538;28;20092;-65
2024/02/14 03:32:33;;;;;;;2.50;2.30;;;4.30;99.90;;;;;;4935483;28;21646;-65
2024/02/14 03:35:00;;;;;;;6.60;3.30;;;4.30;99.90;;;;;;4959612;28;20042;-63
2024/02/14 03:37:26;;;;;;;4.25;3.05;;;4.30;99.90;;;;;;4886908;28;20063;-65
2024/02/14 03:39:52;;;;;;;3.88;3.17;;;4.30;99.90;;;;;;4895651;28;20018;-64
2024/02/14 03:42:19;;;;;;;3.58;2.58;;;4.30;99.90;;;;;;4916694;28;21467;-65
2024/02/14 03:44:45;;;;;;;3.40;2.95;;;4.30;99.90;;;;;;4929455;28;20750;-64
2024/02/14 03:47:13;;;;;;;5.32;3.17;;;4.30;99.90;;;;;;4926308;28;20064;-64
2024/02/14 03:49:40;;;;;;;5.00;3.17;;;4.30;99.90;;;;;;4917433;28;20042;-65
2024/02/14 03:52:09;;;;;;;5.28;2.80;;;4.30;99.90;;;;;;4870445;28;21795;-65
2024/02/14 03:54:36;;;;;;;4.57;3.10;;;4.30;99.90;;;;;;4925206;28;20180;-64
2024/02/14 03:57:04;;;;;;;3.72;3.17;;;4.30;99.90;;;;;;4894602;28;20045;-64
2024/02/14 03:59:29;;;;;;;4.68;2.88;;;4.30;99.90;;;;;;4920265;28;20040;-65
2024/02/14 04:01:55;;;;;;;5.55;2.78;;;4.30;99.90;;;;;;4955329;28;20025;-65
2024/02/14 04:04:21;;;;;;;3.97;3.10;;;4.30;99.90;;;;;;4894148;28;20049;-64
2024/02/14 04:06:47;;;;;;;3.85;2.92;;;4.30;99.90;;;;;;4877909;28;20060;-66
2024/02/14 04:09:13;;;;;;;4.90;3.38;;;4.30;99.90;;;;;;4909875;28;22148;-64
2024/02/14 04:11:38;;;;;;;2.88;2.60;;;4.30;99.90;;;;;;4930909;28;20034;-64
2024/02/14 04:14:04;;;;;;;3.60;2.85;;;4.30;99.90;;;;;;4937201;28;20030;-65
2024/02/14 04:16:29;;;;;;;3.67;2.78;;;4.30;99.90;;;;;;4887808;28;20046;-65
2024/02/14 04:18:56;;;;;;;3.55;2.65;;;4.30;99.90;;;;;;4934587;28;20044;-64
2024/02/14 04:21:21;;;;;;;6.45;2.70;;;4.30;99.90;;;;;;4920169;28;21731;-64
2024/02/14 04:23:47;;;;;;;3.35;3.05;;;4.30;99.90;;;;;;4952013;28;20026;-64
2024/02/14 04:26:20;;;;;;;5.82;3.28;;;4.30;99.90;;;;;;4889220;28;20152;-66
2024/02/14 04:28:46;;;;;;;6.32;3.13;;;4.30;99.90;;;;;;4917766;28;20030;-64
2024/02/14 04:31:11;;;;;;;3.28;2.70;;;4.30;99.90;;;;;;4907437;28;20481;-64
2024/02/14 04:33:37;;;;;;;4.35;2.70;;;4.30;99.90;;;;;;4956104;28;20056;-64
2024/02/14 04:36:03;;;;;;;4.15;2.80;;;4.20;99.90;;;;;;4927746;28;20435;-64
2024/02/14 04:38:29;;;;;;;4.57;3.05;;;4.30;99.90;;;;;;4935975;28;20030;-64
2024/02/14 04:40:56;;;;;;;5.22;2.90;;;4.30;99.90;;;;;;4946712;28;20036;-63
2024/02/14 04:43:22;;;;;;;3.80;3.10;;;4.30;99.90;;;;;;4875215;28;20030;-66
2024/02/14 04:45:47;;;;;;;3.65;3.20;;;4.30;99.90;;;;;;4883201;28;20120;-66
2024/02/14 04:48:13;;;;;;;4.85;3.00;;;4.30;99.90;;;;;;4938080;28;22471;-66
2024/02/14 04:50:39;;;;;;;3.45;2.83;;;4.30;99.90;;;;;;4906959;28;22259;-67
2024/02/14 04:53:04;;;;;;;5.22;3.25;;;4.30;99.90;;;;;;4915672;28;20022;-66
2024/02/14 04:55:30;;;;;;;3.65;2.95;;;4.30;99.90;;;;;;4873063;28;20044;-66
2024/02/14 04:57:56;;;;;;;4.22;3.38;;;4.30;99.90;;;;;;4895081;28;20461;-66
2024/02/14 05:00:21;;;;;;;3.50;3.20;;;4.30;99.90;;;;;;4941416;28;20030;-65
2024/02/14 05:02:47;;;;;;;4.20;3.28;;;4.30;99.90;;;;;;4923456;28;20658;-66
2024/02/14 05:05:13;;;;;;;4.00;3.22;;;4.30;99.90;;;;;;4895219;28;20034;-68
2024/02/14 05:07:38;;;;;;;6.65;3.72;;;4.30;99.90;;;;;;4900031;28;20497;-65
2024/02/14 05:10:04;;;;;;;4.38;3.00;;;4.30;99.90;;;;;;4849215;28;21679;-67
2024/02/14 05:12:30;;;;;;;4.10;2.78;;;4.40;99.90;;;;;;4927797;28;20048;-66
2024/02/14 05:14:55;;;;;;;3.97;3.58;;;4.40;99.90;;;;;;4907726;28;20513;-68
2024/02/14 05:17:21;;;;;;;4.00;3.35;;;4.30;99.90;;;;;;4928754;28;20033;-68
2024/02/14 05:19:46;;;;;;;4.13;3.47;;;4.30;99.90;;;;;;4877564;28;20029;-66
2024/02/14 05:22:12;;;;;;;5.07;3.58;;;4.40;99.90;;;;;;4910829;28;20784;-67
2024/02/14 05:24:38;;;;;;;4.47;3.47;;;4.40;99.90;;;;;;4909930;28;20513;-67
2024/02/14 05:27:05;;;;;;;5.22;3.42;;;4.40;99.90;;;;;;4857783;28;20032;-70
2024/02/14 05:29:30;;;;;;;4.38;3.58;;;4.40;99.90;;;;;;4964864;28;20068;-66
2024/02/14 05:31:56;;;;;;;5.57;3.63;;;4.40;99.90;;;;;;4966307;28;20031;-65
2024/02/14 05:34:22;;;;;;;4.55;3.63;;;4.40;99.90;;;;;;4893190;28;20515;-65
2024/02/14 05:36:48;;;;;;;6.45;3.80;;;4.50;99.90;;;;;;4901710;28;20100;-65
2024/02/14 05:39:17;;;;;;;4.43;3.85;;;4.50;99.90;;;;;;4891992;28;21069;-65
2024/02/14 05:41:43;;;;;;;5.25;3.80;;;4.50;99.90;;;;;;4935218;28;20466;-65
2024/02/14 05:44:08;;;;;;;4.07;3.47;;;4.50;99.90;;;;;;4924812;28;20619;-65
2024/02/14 05:46:34;;;;;;;6.57;3.85;;;4.50;99.90;;;;;;4868452;28;20314;-65
2024/02/14 05:48:59;;;;;;;3.95;3.58;;;4.50;99.90;;;;;;4838304;28;21609;-65
2024/02/14 05:51:25;;;;;;;4.93;4.13;;;4.50;99.90;;;;;;4938084;28;20084;-65
2024/02/14 05:53:51;;;;;;;6.30;3.83;;;4.50;99.90;;;;;;4907105;28;20042;-65
2024/02/14 05:56:16;;;;;;;5.80;4.55;;;4.50;99.90;;;;;;4898063;28;20509;-67
2024/02/14 05:58:42;;;;;;;4.72;3.72;;;4.50;99.90;;;;;;4917263;28;20026;-65
2024/02/14 06:01:08;;;;;;;5.18;4.22;;;4.50;99.90;;;;;;4850118;28;20025;-64
2024/02/14 06:03:33;;;;;;;4.15;3.72;;;4.60;99.90;;;;;;4892472;28;20117;-65
2024/02/14 06:05:59;;;;;;;5.60;4.18;;;4.60;99.90;;;;;;4886431;28;20022;-67
2024/02/14 06:08:26;;;;;;;5.65;4.45;;;4.60;99.90;;;;;;4890057;28;20042;-65
2024/02/14 06:10:52;;;;;;;5.25;4.75;;;4.60;99.90;;;;;;4883321;28;20125;-65
2024/02/14 06:13:17;;;;;;;4.65;4.13;;;4.60;99.90;;;;;;4864546;28;20018;-66
2024/02/14 06:15:43;;;;;;;4.68;4.20;;;4.60;99.90;;;;;;4905351;28;20121;-66
2024/02/14 06:18:09;;;;;;;5.03;4.55;;;4.60;99.90;;;;;;4913668;28;20026;-65
2024/02/14 06:20:35;;;;;;;5.63;4.75;;;4.60;99.90;;;;;;4919114;28;21770;-64
2024/02/14 06:23:00;;;;;;;5.63;4.35;;;4.60;99.90;;;;;;4899489;28;20030;-65
2024/02/14 06:25:26;;;;;;;6.60;4.45;;;4.70;99.90;;;;;;4884262;28;20518;-65
2024/02/14 06:27:54;;;;;;;8.13;4.32;;;4.70;99.90;;;;;;4905879;28;20025;-66
2024/02/14 06:30:19;;;;;;;6.07;4.13;;;4.70;99.90;;;;;;4944882;28;20061;-66
2024/02/14 06:32:45;;;;;;;5.63;4.20;;;4.70;99.90;;;;;;4951492;28;20109;-65
2024/02/14 06:35:11;;;;;;;4.43;4.03;;;4.70;99.90;;;;;;4986324;28;20393;-65
2024/02/14 06:37:36;;;;;;;7.68;4.80;;;4.70;99.90;;;;;;4934243;28;20056;-65
2024/02/14 06:40:02;;;;;;;6.60;4.75;;;4.80;99.90;;;;;;4939301;28;20510;-65
2024/02/14 06:42:28;;;;;;;7.15;4.82;;;4.80;99.90;;;;;;4928539;28;20093;-65
2024/02/14 06:44:53;;;;;;;6.20;5.03;;;4.80;99.90;;;;;;4938438;28;20026;-65
2024/02/14 06:47:19;;;;;;;8.80;5.30;;;4.80;99.90;;;;;;4944456;28;20026;-66
2024/02/14 06:49:44;;;;;;;5.65;5.05;;;4.80;99.90;;;;;;4959058;28;20046;-65
2024/02/14 06:52:10;;;;;;;6.38;5.35;;;4.80;99.90;;;;;;4942435;28;20037;-65
2024/02/14 06:54:35;;;;;;;7.75;5.35;;;4.80;99.90;;;;;;4924110;28;20037;-65
2024/02/14 06:57:01;;;;;;;6.18;5.57;;;4.80;99.90;;;;;;4896905;28;20405;-67
2024/02/14 06:59:27;;;;;;;6.57;5.43;;;4.80;99.90;;;;;;4926978;28;20034;-65
2024/02/14 07:01:54;;;;;;;6.32;5.18;;;4.80;99.90;;;;;;4973761;28;20592;-65
2024/02/14 07:04:25;;;;;;;6.80;5.05;;;4.80;99.90;;;;;;4906960;28;20056;-65
2024/02/14 07:06:51;;;;;;;5.72;4.65;;;4.80;99.90;;;;;;4919969;28;20025;-65
2024/02/14 07:09:17;;;;;;;6.93;5.18;;;4.80;99.90;;;;;;4897251;28;21082;-65
2024/02/14 07:11:43;;;;;;;7.45;5.10;;;4.80;99.90;;;;;;4919990;28;21410;-64
2024/02/14 07:14:08;;;;;;;5.68;5.13;;;4.90;99.90;;;;;;4978349;28;20486;-65
2024/02/14 07:16:34;;;;;;;8.98;5.47;;;4.90;99.90;;;;;;4908002;28;20593;-65
2024/02/14 07:18:59;;;;;;;6.28;5.63;;;4.90;99.90;;;;;;4899376;28;20071;-65
2024/02/14 07:21:25;;;;;;;5.88;4.72;;;4.90;99.90;;;;;;4920791;28;20139;-65
2024/02/14 07:23:50;;;;;;;5.85;5.18;;;5.00;99.90;;;;;;4918243;28;20120;-66
2024/02/14 07:26:16;;;;;;;6.70;5.20;;;5.00;99.90;;;;;;4926261;28;20025;-67
2024/02/14 07:28:41;;;;;;;5.28;4.63;;;5.00;99.90;;;;;;4890742;28;20026;-67
2024/02/14 07:31:07;;;;;;;6.75;5.32;;;5.00;99.90;;;;;;4926520;28;20764;-65
2024/02/14 07:33:32;;;;;;;5.70;4.57;;;5.00;99.90;;;;;;4897701;28;20033;-65
2024/02/14 07:35:58;;;;;;;5.28;4.78;;;5.00;99.90;;;;;;4915872;28;20087;-67
2024/02/14 07:38:24;;;;;;;5.43;4.70;;;5.00;99.90;;;;;;4893547;28;20025;-67
2024/02/14 07:40:52;;;;;;;5.50;4.85;;;5.10;99.90;;;;;;4964819;28;20080;-65
2024/02/14 07:43:17;;;;;;;7.82;5.25;;;5.10;99.90;;;;;;4926777;28;20466;-65
2024/02/14 07:45:43;;;;;;;6.75;5.10;;;5.20;99.90;;;;;;4923086;28;20252;-65
2024/02/14 07:48:09;;;;;;;4.78;4.30;;;5.20;99.90;;;;;;4910945;28;20030;-65
2024/02/14 07:50:34;;;;;;;9.13;6.07;;;5.20;99.90;;;;;;4907659;28;20119;-64
2024/02/14 07:53:01;;;;;;;5.95;4.70;;;5.20;99.90;;;;;;4977613;28;21617;-65
2024/02/14 07:55:27;;;;;;;5.90;4.93;;;5.20;99.90;;;;;;4924040;28;20032;-65
2024/02/14 07:57:53;;;;;;;7.97;5.15;;;5.20;99.90;;;;;;4928106;28;20469;-65
2024/02/14 08:00:22;;;;;;;6.40;5.30;;;5.20;99.90;;;;;;4904167;28;20030;-65
2024/02/14 08:02:48;;;;;;;7.63;5.53;;;5.20;99.90;;;;;;4907687;28;20088;-65
2024/02/14 08:05:14;;;;;;;7.72;5.40;;;5.30;99.90;;;;;;4956201;28;20046;-67
2024/02/14 08:07:40;;;;;;;5.95;5.35;;;5.30;99.90;;;;;;4927315;28;20048;-67
2024/02/14 08:10:06;;;;;;;6.35;4.93;;;5.30;99.90;;;;;;4928264;28;20320;-65
2024/02/14 08:12:31;;;;;;;7.57;5.88;;;5.30;99.90;;;;;;4989950;28;21477;-65
2024/02/14 08:14:57;;;;;;;7.22;5.93;;;5.40;99.90;;;;;;4966315;28;20022;-65
2024/02/14 08:17:22;;;;;;;6.90;5.35;;;5.40;99.90;;;;;;4958581;28;20079;-66
2024/02/14 08:19:48;;;;;;;6.85;5.70;;;5.40;99.90;;;;;;4976643;28;20124;-65
2024/02/14 08:22:13;;;;;;;7.45;5.80;;;5.40;99.90;;;;;;4978332;28;21471;-65
2024/02/14 08:24:39;;;;;;;7.53;6.05;;;5.40;99.90;;;;;;4980919;28;20529;-65
2024/02/14 08:27:08;;;;;;;8.50;6.05;;;5.50;99.90;;;;;;4967356;28;20366;-65
2024/02/14 08:29:33;;;;;;;8.80;5.88;;;5.50;99.90;;;;;;4968236;28;20033;-65
2024/02/14 08:31:59;;;;;;;8.02;6.60;;;5.50;99.90;;;;;;4964828;28;21788;-66
2024/02/14 08:34:25;;;;;;;6.50;5.80;;;5.50;99.90;;;;;;4982915;28;20137;-65
2024/02/14 08:36:50;;;;;;;8.30;5.82;;;5.60;99.90;;;;;;4975014;28;20025;-65
2024/02/14 08:39:16;;;;;;;6.22;5.32;;;5.60;99.90;;;;;;4962238;28;20752;-66
2024/02/14 08:41:44;;;;;;;6.45;5.68;;;5.60;99.90;;;;;;4964563;28;20549;-65
2024/02/14 08:44:10;;;;;;;9.25;6.07;;;5.60;99.90;;;;;;4968429;28;20018;-65
2024/02/14 08:46:36;;;;;;;8.60;5.97;;;5.70;99.90;;;;;;4973104;28;20080;-66
2024/02/14 08:49:02;;;;;;;7.85;5.65;;;5.70;99.90;;;;;;4969220;28;20025;-65
2024/02/14 08:51:28;;;;;;;8.38;5.78;;;5.70;99.90;;;;;;4969182;28;20060;-65
2024/02/14 08:53:55;;;;;;;6.68;5.97;;;5.80;99.90;;;;;;4953287;28;20022;-65
2024/02/14 08:56:24;;;;;;;6.80;5.43;;;5.80;99.90;;;;;;4966522;28;20053;-66
2024/02/14 08:58:49;;;;;;;9.38;6.88;;;5.80;99.90;;;;;;4954953;28;20041;-65
2024/02/14 09:01:15;;;;;;;17.65;11.65;;;5.80;99.90;;;;;;4997327;28;21901;-66
2024/02/14 09:03:47;;;;;;;27.10;16.40;;;5.90;99.90;;;;;;4966825;28;20286;-65
2024/02/14 09:06:17;;;;;;;19.65;12.50;;;5.90;99.90;;;;;;4955508;28;20033;-66
2024/02/14 09:08:43;;;;;;;10.57;7.50;;;5.90;99.90;;;;;;4974442;28;20017;-66
2024/02/14 09:11:09;;;;;;;7.38;5.78;;;5.90;99.90;;;;;;4936439;28;20052;-65
2024/02/14 09:13:35;;;;;;;6.93;5.63;;;6.00;99.90;;;;;;4965471;28;20616;-65
2024/02/14 09:16:00;;;;;;;7.15;5.47;;;6.00;99.90;;;;;;4936389;28;20022;-66
2024/02/14 09:18:27;;;;;;;5.82;5.03;;;6.00;99.90;;;;;;4963224;28;20487;-65
2024/02/14 09:20:52;;;;;;;6.47;5.43;;;6.10;99.90;;;;;;4970733;28;20048;-65
2024/02/14 09:23:22;;;;;;;6.63;5.93;;;6.10;99.90;;;;;;4919711;28;20025;-66
2024/02/14 09:25:51;;;;;;;5.85;5.25;;;6.10;99.90;;;;;;4916940;28;20022;-65
2024/02/14 09:28:17;;;;;;;6.50;5.53;;;6.20;99.90;;;;;;4958260;28;21685;-65
2024/02/14 09:30:42;;;;;;;5.75;4.57;;;6.20;99.90;;;;;;4964365;28;20049;-65
2024/02/14 09:33:08;;;;;;;6.38;5.55;;;6.20;99.90;;;;;;4966648;28;20038;-65
2024/02/14 09:35:35;;;;;;;6.82;5.03;;;6.30;99.90;;;;;;4952365;28;20058;-65
2024/02/14 09:38:01;;;;;;;7.70;5.05;;;6.30;99.90;;;;;;4934005;28;21467;-65
2024/02/14 09:40:26;;;;;;;6.63;5.22;;;6.30;99.90;;;;;;4956964;28;20088;-65
2024/02/14 09:42:58;;;;;;;8.00;5.47;;;6.40;99.90;;;;;;4960223;28;20026;-65
2024/02/14 09:45:27;;;;;;;7.05;5.70;;;6.50;99.90;;;;;;4963121;28;20568;-66
2024/02/14 09:47:53;;;;;;;7.50;6.20;;;6.50;99.90;;;;;;4942689;28;20029;-65
2024/02/14 09:50:20;;;;;;;8.65;6.15;;;6.60;99.90;;;;;;4924559;28;20033;-66
2024/02/14 09:52:48;;;;;;;7.22;5.25;;;6.70;99.90;;;;;;4932859;28;20041;-66
2024/02/14 09:55:18;;;;;;;6.75;5.63;;;6.70;99.90;;;;;;4973860;28;21703;-65
2024/02/14 09:57:46;;;;;;;6.65;5.38;;;6.70;99.90;;;;;;4950038;28;20022;-65
2024/02/14 10:00:15;;;;;;;5.53;4.63;;;6.80;99.90;;;;;;4937799;28;20152;-66
2024/02/14 10:02:41;;;;;;;7.68;5.50;;;6.90;99.90;;;;;;4948418;28;20064;-65
2024/02/14 10:05:07;;;;;;;6.07;4.72;;;6.90;99.90;;;;;;4948929;28;20033;-65
2024/02/14 10:07:51;;;;;;;6.47;4.88;;;7.00;99.90;;;;;;4962710;28;20038;-65
2024/02/14 10:10:17;;;;;;;5.00;3.83;;;7.10;99.90;;;;;;4949780;28;22286;-65
2024/02/14 10:12:42;;;;;;;6.10;4.22;;;7.10;99.90;;;;;;4956388;28;20053;-65
2024/02/14 10:15:09;;;;;;;4.38;3.80;;;7.20;99.90;;;;;;4947704;28;20029;-65
2024/02/14 10:17:34;;;;;;;4.18;3.53;;;7.20;99.90;;;;;;4930448;28;20060;-66
2024/02/14 10:20:05;;;;;;;4.15;3.75;;;7.30;99.90;;;;;;4911227;28;21753;-65
2024/02/14 10:22:38;;;;;;;3.92;3.50;;;7.30;99.90;;;;;;4959968;28;20457;-65
2024/02/14 10:25:08;;;;;;;4.75;3.58;;;7.40;99.90;;;;;;4946707;28;20114;-65
2024/02/14 10:27:40;;;;;;;3.92;3.53;;;7.40;99.90;;;;;;4955040;28;22609;-65
2024/02/14 10:30:09;;;;;;;4.03;3.40;;;7.50;99.90;;;;;;4953199;28;20053;-65
2024/02/14 10:32:40;;;;;;;4.10;3.13;;;7.50;99.90;;;;;;4946172;28;20029;-65
2024/02/14 10:35:08;;;;;;;3.95;3.33;;;7.60;99.90;;;;;;4938978;28;20041;-65
2024/02/14 10:37:38;;;;;;;3.42;3.13;;;7.70;99.90;;;;;;4981888;28;20097;-65
2024/02/14 10:40:04;;;;;;;4.60;3.20;;;7.70;99.90;;;;;;4924580;28;20041;-65
2024/02/14 10:42:31;;;;;;;3.67;3.30;;;7.80;99.90;;;;;;4947205;28;20042;-65
2024/02/14 10:44:56;;;;;;;3.63;3.30;;;7.80;99.90;;;;;;4953497;28;20494;-65
2024/02/14 10:47:29;;;;;;;4.47;3.83;;;7.80;99.90;;;;;;4905956;28;20029;-65
2024/02/14 10:50:00;;;;;;;4.57;4.13;;;7.90;99.90;;;;;;4901183;28;20037;-65
2024/02/14 10:52:27;;;;;;;4.07;3.58;;;8.00;99.90;;;;;;4966599;28;20125;-65
2024/02/14 10:54:56;;;;;;;3.90;3.10;;;8.00;99.90;;;;;;4939289;28;20395;-65
2024/02/14 10:57:24;;;;;;;3.65;3.13;;;8.00;99.90;;;;;;4913158;28;20048;-65
2024/02/14 10:59:52;;;;;;;4.63;3.83;;;8.10;99.90;;;;;;4934172;28;20401;-65
2024/02/14 11:02:23;;;;;;;3.80;3.50;;;8.10;99.90;;;;;;4902784;28;20109;-65
2024/02/14 11:04:53;;;;;;;3.70;3.25;;;8.20;99.90;;;;;;4901646;28;20041;-65
2024/02/14 11:07:20;;;;;;;3.58;3.25;;;8.20;99.90;;;;;;4953432;28;20034;-65
2024/02/14 11:09:45;;;;;;;3.35;3.05;;;8.20;99.90;;;;;;4940967;28;20030;-65
2024/02/14 11:12:11;;;;;;;4.72;3.67;;;8.30;99.90;;;;;;4947481;28;20080;-66
2024/02/14 11:14:39;;;;;;;3.70;3.40;;;8.30;99.90;;;;;;4900495;28;20030;-65
2024/02/14 11:17:09;;;;;;;3.45;3.15;;;8.40;99.90;;;;;;4918436;28;21476;-65
2024/02/14 11:19:38;;;;;;;3.03;2.70;;;8.40;99.90;;;;;;4953948;28;20502;-65
2024/02/14 11:22:17;;;;;;;3.25;2.95;;;8.40;99.90;;;;;;4887942;28;20035;-65
2024/02/14 11:24:46;;;;;;;4.10;3.33;;;8.50;99.90;;;;;;4938475;28;20096;-65
2024/02/14 11:27:12;;;;;;;3.55;3.10;;;8.50;99.90;;;;;;4957275;28;20109;-65
2024/02/14 11:29:50;;;;;;;3.03;2.70;;;8.60;99.90;;;;;;4926427;28;20033;-65
2024/02/14 11:32:17;;;;;;;3.10;2.80;;;8.60;99.90;;;;;;4894314;28;20120;-64
2024/02/14 11:34:43;;;;;;;4.47;3.20;;;8.70;99.90;;;;;;4928852;28;20095;-66
2024/02/14 11:37:09;;;;;;;3.58;3.28;;;8.70;99.90;;;;;;4927091;28;20087;-65
2024/02/14 11:39:35;;;;;;;2.97;2.67;;;8.70;99.90;;;;;;4915396;28;21635;-65
2024/02/14 11:42:01;;;;;;;2.88;2.58;;;8.70;99.90;;;;;;4964084;28;20033;-65
2024/02/14 11:44:27;;;;;;;2.80;2.50;;;8.80;99.90;;;;;;4955578;28;20053;-65
2024/02/14 11:46:53;;;;;;;3.80;3.03;;;8.80;99.90;;;;;;4939349;28;20038;-65
2024/02/14 11:49:19;;;;;;;2.72;2.50;;;8.80;99.90;;;;;;4918273;28;20513;-65
2024/02/14 11:51:45;;;;;;;2.78;2.50;;;8.80;99.90;;;;;;4919015;28;20062;-66
2024/02/14 11:54:10;;;;;;;3.22;2.78;;;8.90;99.90;;;;;;4962429;28;20034;-64
2024/02/14 11:56:39;;;;;;;3.95;3.10;;;8.90;99.90;;;;;;4950590;28;20498;-66
2024/02/14 11:59:07;;;;;;;4.28;3.25;;;8.90;99.90;;;;;;4950752;28;20129;-64
2024/02/14 12:01:34;;;;;;;2.88;2.58;;;9.00;99.90;;;;;;4936876;28;20485;-64
2024/02/14 12:04:03;;;;;;;4.10;2.97;;;9.00;99.90;;;;;;4943678;28;21698;-65
2024/02/14 12:06:31;;;;;;;3.80;3.28;;;9.00;99.90;;;;;;4941008;28;20033;-65
2024/02/14 12:09:01;;;;;;;3.72;3.10;;;9.00;99.90;;;;;;4927197;28;20010;-66
2024/02/14 12:11:28;;;;;;;3.28;2.97;;;9.10;99.90;;;;;;4951563;28;20022;-65
2024/02/14 12:13:54;;;;;;;3.53;2.67;;;9.10;99.90;;;;;;4936728;28;20116;-64
2024/02/14 12:16:23;;;;;;;2.97;2.60;;;9.10;99.90;;;;;;4938993;28;20079;-65
2024/02/14 12:18:49;;;;;;;4.25;3.20;;;9.20;99.90;;;;;;4923541;28;20621;-65
2024/02/14 12:21:15;;;;;;;4.32;3.17;;;9.20;99.90;;;;;;4943540;28;22885;-64
2024/02/14 12:23:40;;;;;;;4.85;3.63;;;9.20;99.90;;;;;;4951990;28;20026;-64
2024/02/14 12:26:07;;;;;;;2.88;2.65;;;9.30;99.90;;;;;;4960469;28;20049;-65
2024/02/14 12:28:32;;;;;;;3.85;2.72;;;9.20;99.90;;;;;;4904130;28;20704;-65
2024/02/14 12:30:58;;;;;;;3.42;2.90;;;9.30;99.90;;;;;;4917639;28;20081;-65
2024/02/14 12:33:25;;;;;;;3.10;2.80;;;9.40;99.90;;;;;;4944935;28;20030;-64
2024/02/14 12:35:53;;;;;;;3.65;2.95;;;9.40;99.90;;;;;;4940190;28;20028;-65
2024/02/14 12:38:20;;;;;;;3.22;2.90;;;9.40;99.90;;;;;;4905897;28;20080;-65
2024/02/14 12:40:46;;;;;;;3.40;2.70;;;9.50;99.90;;;;;;4911408;28;20029;-65
2024/02/14 12:43:14;;;;;;;6.68;2.47;;;9.60;99.90;;;;;;4898325;28;20037;-64
2024/02/14 12:45:40;;;;;;;3.22;2.45;;;9.60;99.90;;;;;;4948693;28;20029;-64
2024/02/14 12:48:10;;;;;;;2.58;2.38;;;9.70;99.90;;;;;;4915061;28;20048;-64
2024/02/14 12:50:39;;;;;;;3.38;2.70;;;9.70;99.90;;;;;;4943681;28;20145;-66
2024/02/14 12:53:06;;;;;;;3.58;2.20;;;9.80;99.90;;;;;;4938851;28;20026;-66